Time;durP1;ratioP1;P1;durP2;ratioP2;P2;SDS_P1;SDS_P2;PMS_P1;PMS_P2;Temp;Humidity;BMP_temperature;BMP_pressure;BME280_temperature;BME280_humidity;BME280_pressure;Samples;Min_cycle;Max_cycle;Signal;HPM_P1;HPM_P2
2022/06/14 00:00:53;;;;;;;9.07;3.33;;;11.70;99.90;;;;;;5043407;28;20049;-63
2022/06/14 00:02:26;;;;;;;10.52;3.10;;;11.70;99.90;;;;;;5041883;28;20090;-63
2022/06/14 00:04:51;;;;;;;11.48;3.40;;;11.70;99.90;;;;;;5045059;28;20048;-63
2022/06/14 00:07:18;;;;;;;9.70;3.50;;;11.70;99.90;;;;;;5044423;28;20067;-63
2022/06/14 00:09:44;;;;;;;14.65;3.47;;;11.70;99.90;;;;;;5044601;28;20106;-64
2022/06/14 00:12:12;;;;;;;12.48;3.67;;;11.70;99.90;;;;;;5041674;28;20159;-63
2022/06/14 00:14:37;;;;;;;14.18;3.35;;;11.70;99.90;;;;;;5025655;28;21257;-63
2022/06/14 00:17:03;;;;;;;9.00;3.45;;;11.70;99.90;;;;;;5029045;28;20056;-63
2022/06/14 00:19:29;;;;;;;10.10;3.45;;;11.70;99.90;;;;;;5024901;28;20561;-63
2022/06/14 00:21:56;;;;;;;11.30;3.40;;;11.70;99.90;;;;;;5040193;28;20048;-63
2022/06/14 00:24:22;;;;;;;11.02;3.10;;;11.60;99.90;;;;;;5042573;28;20045;-63
2022/06/14 00:26:48;;;;;;;10.60;3.63;;;11.70;99.90;;;;;;5042690;28;20052;-63
2022/06/14 00:29:14;;;;;;;11.20;3.45;;;11.70;99.90;;;;;;5026795;28;20049;-63
2022/06/14 00:31:39;;;;;;;10.80;3.38;;;11.70;99.90;;;;;;5040078;28;20052;-63
2022/06/14 00:34:05;;;;;;;15.55;4.10;;;11.70;99.90;;;;;;5041263;28;20083;-64
2022/06/14 00:36:34;;;;;;;9.93;4.03;;;11.80;99.90;;;;;;5026435;28;20141;-63
2022/06/14 00:39:04;;;;;;;9.30;3.13;;;11.80;99.90;;;;;;5029445;28;20550;-63
2022/06/14 00:41:46;;;;;;;13.00;3.90;;;11.80;99.90;;;;;;5039665;28;20048;-63
2022/06/14 00:44:25;;;;;;;10.90;4.17;;;11.80;99.90;;;;;;5027265;28;20524;-63
2022/06/14 00:47:27;;;;;;;11.95;4.18;;;11.80;99.90;;;;;;5040469;28;20044;-63
2022/06/14 00:49:59;;;;;;;11.52;3.88;;;11.90;99.90;;;;;;4970642;28;20065;-63
2022/06/14 00:52:39;;;;;;;13.18;3.85;;;11.90;99.90;;;;;;5014064;28;20092;-63
2022/06/14 00:55:34;;;;;;;19.52;4.75;;;11.80;99.90;;;;;;5044243;28;20519;-63
2022/06/14 00:58:13;;;;;;;14.70;4.60;;;11.80;99.90;;;;;;5019742;28;20557;-63
2022/06/14 01:01:04;;;;;;;12.13;4.28;;;11.80;99.90;;;;;;5043983;28;20041;-63
2022/06/14 01:03:42;;;;;;;22.05;4.68;;;11.80;99.90;;;;;;5045504;28;20048;-64
2022/06/14 01:06:30;;;;;;;13.18;4.55;;;11.80;99.90;;;;;;5044030;28;20431;-63
2022/06/14 01:09:12;;;;;;;14.77;4.10;;;11.70;99.90;;;;;;5057235;28;20082;-63
2022/06/14 01:11:43;;;;;;;14.10;4.03;;;11.70;99.90;;;;;;5040192;28;21676;-63
2022/06/14 01:14:12;;;;;;;10.70;4.13;;;11.70;99.90;;;;;;5042167;28;20907;-63
2022/06/14 01:16:38;;;;;;;11.52;4.95;;;11.70;99.90;;;;;;5029116;28;20131;-63
2022/06/14 01:19:21;;;;;;;13.70;4.75;;;11.60;99.90;;;;;;5041505;28;20105;-63
2022/06/14 01:22:14;;;;;;;10.65;4.10;;;11.60;99.90;;;;;;5039202;28;20128;-63
2022/06/14 01:24:42;;;;;;;14.23;4.28;;;11.60;99.90;;;;;;5013067;28;20059;-63
2022/06/14 01:27:12;;;;;;;17.35;4.25;;;11.50;99.90;;;;;;5043711;28;20041;-64
2022/06/14 01:29:42;;;;;;;13.45;4.45;;;11.50;99.90;;;;;;5044049;28;20502;-63
2022/06/14 01:32:11;;;;;;;10.68;3.95;;;11.40;99.90;;;;;;5021830;28;20048;-63
2022/06/14 01:34:42;;;;;;;7.60;3.72;;;11.40;99.90;;;;;;5040785;28;21331;-63
2022/06/14 01:37:08;;;;;;;11.98;3.63;;;11.30;99.90;;;;;;5042387;28;20044;-63
2022/06/14 01:39:36;;;;;;;9.52;4.13;;;11.30;99.90;;;;;;5037909;28;20325;-63
2022/06/14 01:42:12;;;;;;;14.60;4.25;;;11.30;99.90;;;;;;5042194;28;20045;-63
2022/06/14 01:45:12;;;;;;;11.43;4.05;;;11.30;99.90;;;;;;5037855;28;20037;-63
2022/06/14 01:48:16;;;;;;;14.57;4.30;;;11.20;99.90;;;;;;5039019;28;20113;-63
2022/06/14 01:53:48;;;;;;;15.73;3.67;;;11.10;99.90;;;;;;5043027;28;20063;-63
2022/06/14 01:56:23;;;;;;;13.32;4.72;;;11.00;99.90;;;;;;5036149;28;20737;-63
2022/06/14 01:59:15;;;;;;;11.73;3.28;;;11.00;99.90;;;;;;5045366;28;20506;-63
2022/06/14 02:02:00;;;;;;;12.87;4.20;;;11.00;99.90;;;;;;5040187;28;20178;-63
2022/06/14 02:04:54;;;;;;;9.43;3.88;;;10.90;99.90;;;;;;5041767;28;20052;-63
2022/06/14 02:07:20;;;;;;;10.25;3.47;;;10.90;99.90;;;;;;5046090;28;20067;-63
2022/06/14 02:09:55;;;;;;;7.65;3.15;;;10.90;99.90;;;;;;5049350;28;20048;-63
2022/06/14 02:12:41;;;;;;;12.20;3.88;;;10.80;99.90;;;;;;5046877;28;20044;-63
2022/06/14 02:15:17;;;;;;;10.57;3.95;;;10.80;99.90;;;;;;5031329;28;20102;-63
2022/06/14 02:18:07;;;;;;;11.18;3.90;;;10.70;99.90;;;;;;5048179;28;20215;-63
2022/06/14 02:20:43;;;;;;;8.40;3.80;;;10.70;99.90;;;;;;5032423;28;20063;-63
2022/06/14 02:23:09;;;;;;;7.53;3.75;;;10.70;99.90;;;;;;5049477;28;20174;-63
2022/06/14 02:25:56;;;;;;;12.95;3.90;;;10.60;99.90;;;;;;5029575;28;20049;-63
2022/06/14 02:28:32;;;;;;;16.38;4.18;;;10.60;99.90;;;;;;5029380;28;20590;-63
2022/06/14 02:31:21;;;;;;;13.32;4.28;;;10.50;99.90;;;;;;5028559;28;20045;-64
2022/06/14 02:33:58;;;;;;;11.98;4.25;;;10.50;99.90;;;;;;5037576;28;20046;-63
2022/06/14 02:36:40;;;;;;;9.82;4.07;;;10.50;99.90;;;;;;5018862;28;20052;-63
2022/06/14 02:39:19;;;;;;;10.80;4.55;;;10.50;99.90;;;;;;5040956;28;20048;-63
2022/06/14 02:42:01;;;;;;;9.85;4.32;;;10.50;99.90;;;;;;5030394;28;20170;-63
2022/06/14 02:44:50;;;;;;;14.93;4.38;;;10.50;99.90;;;;;;5039205;28;20071;-63
2022/06/14 02:47:30;;;;;;;15.63;4.47;;;10.40;99.90;;;;;;5045072;28;20055;-63
2022/06/14 02:50:11;;;;;;;14.10;4.95;;;10.40;99.90;;;;;;5032027;28;20048;-63
2022/06/14 02:53:00;;;;;;;12.35;4.50;;;10.30;99.90;;;;;;5027308;28;20045;-63
2022/06/14 02:55:43;;;;;;;12.23;4.00;;;10.30;99.90;;;;;;5015788;28;20150;-63
2022/06/14 02:58:20;;;;;;;12.65;4.28;;;10.30;99.90;;;;;;5033704;28;20531;-63
2022/06/14 03:00:57;;;;;;;11.63;3.90;;;10.20;99.90;;;;;;5032539;28;20940;-63
2022/06/14 03:03:38;;;;;;;11.57;4.18;;;10.20;99.90;;;;;;5017848;28;20060;-63
2022/06/14 03:06:23;;;;;;;11.45;4.07;;;10.20;99.90;;;;;;5036655;28;20108;-63
2022/06/14 03:08:56;;;;;;;10.20;4.35;;;10.20;99.90;;;;;;5039085;28;20172;-62
2022/06/14 03:11:51;;;;;;;12.85;4.78;;;10.20;99.90;;;;;;5049015;28;20036;-63
2022/06/14 03:14:27;;;;;;;10.93;4.93;;;10.20;99.90;;;;;;5029885;28;20127;-63
2022/06/14 03:17:03;;;;;;;9.93;4.15;;;10.20;99.90;;;;;;5044041;28;20411;-62
2022/06/14 03:19:54;;;;;;;15.55;4.90;;;10.20;99.90;;;;;;5048035;28;20502;-63
2022/06/14 03:22:24;;;;;;;11.05;3.88;;;10.20;99.90;;;;;;5034721;28;20813;-62
2022/06/14 03:24:55;;;;;;;11.10;4.57;;;10.20;99.90;;;;;;5034248;28;20049;-63
2022/06/14 03:27:38;;;;;;;11.07;4.07;;;10.20;99.90;;;;;;5030120;28;20060;-62
2022/06/14 03:30:20;;;;;;;16.77;4.45;;;10.20;99.90;;;;;;5050262;28;20080;-62
2022/06/14 03:32:53;;;;;;;13.35;4.70;;;10.20;99.90;;;;;;5038483;28;20036;-62
2022/06/14 03:35:49;;;;;;;9.70;4.50;;;10.30;99.90;;;;;;5037593;28;20608;-63
2022/06/14 03:38:20;;;;;;;11.65;4.50;;;10.30;99.90;;;;;;5043027;28;20060;-63
2022/06/14 03:40:47;;;;;;;11.45;4.68;;;10.20;99.90;;;;;;5042295;28;20083;-62
2022/06/14 03:43:13;;;;;;;13.35;4.72;;;10.20;99.90;;;;;;5058181;28;20044;-62
2022/06/14 03:46:04;;;;;;;12.27;4.93;;;10.20;99.90;;;;;;5030440;28;20037;-63
2022/06/14 03:48:33;;;;;;;16.58;4.95;;;10.20;99.90;;;;;;5053279;28;20565;-62
2022/06/14 03:51:17;;;;;;;8.68;4.40;;;10.20;99.90;;;;;;5046127;28;20153;-62
2022/06/14 03:54:01;;;;;;;10.85;4.07;;;10.30;99.90;;;;;;5043401;28;20053;-62
2022/06/14 03:56:44;;;;;;;13.30;4.63;;;10.30;99.90;;;;;;5045245;28;20156;-63
2022/06/14 03:59:19;;;;;;;;;;;10.30;99.90;;;;;;5046354;28;20486;-62
2022/06/14 04:01:53;;;;;;;12.75;4.45;;;10.20;99.90;;;;;;5041823;28;22152;-62
2022/06/14 04:04:51;;;;;;;12.15;4.60;;;10.20;99.90;;;;;;5044356;28;20522;-63
2022/06/14 04:07:45;;;;;;;14.68;5.18;;;10.30;99.90;;;;;;5049408;28;20406;-62
2022/06/14 04:10:38;;;;;;;11.98;5.10;;;10.30;99.90;;;;;;5033571;28;20080;-63
2022/06/14 04:13:33;;;;;;;13.93;4.97;;;10.30;99.90;;;;;;5049910;28;20487;-63
2022/06/14 04:16:26;;;;;;;10.50;5.00;;;10.30;99.90;;;;;;5051434;28;20115;-63
2022/06/14 04:19:18;;;;;;;11.95;4.53;;;10.30;99.90;;;;;;5044777;28;20044;-63
2022/06/14 04:21:57;;;;;;;12.43;4.57;;;10.30;99.90;;;;;;5049492;28;20479;-62
2022/06/14 04:24:26;;;;;;;11.20;4.65;;;10.40;99.90;;;;;;5048102;28;20076;-62
2022/06/14 04:27:11;;;;;;;14.45;5.47;;;10.40;99.90;;;;;;5049657;28;20074;-63
2022/06/14 04:29:42;;;;;;;12.13;4.95;;;10.40;99.90;;;;;;5050396;28;20044;-63
2022/06/14 04:32:18;;;;;;;15.02;4.97;;;10.50;99.90;;;;;;5049644;28;20045;-63
2022/06/14 04:34:54;;;;;;;12.18;4.95;;;10.50;99.90;;;;;;5034160;28;20102;-63
2022/06/14 04:37:35;;;;;;;10.10;4.25;;;10.60;99.90;;;;;;5047176;28;20072;-63
2022/06/14 04:40:19;;;;;;;14.57;4.68;;;10.60;99.90;;;;;;5049350;28;20044;-63
2022/06/14 04:43:08;;;;;;;10.52;4.22;;;10.70;99.90;;;;;;5031859;28;20048;-63
2022/06/14 04:45:43;;;;;;;14.18;4.35;;;10.70;99.90;;;;;;5033011;28;20056;-63
2022/06/14 04:48:16;;;;;;;13.45;4.53;;;10.80;99.90;;;;;;5046550;28;20060;-63
2022/06/14 04:50:48;;;;;;;11.00;4.40;;;10.90;99.90;;;;;;5043079;28;20044;-63
2022/06/14 04:53:25;;;;;;;12.13;4.50;;;10.90;99.90;;;;;;5049236;28;20538;-63
2022/06/14 04:56:25;;;;;;;16.08;4.75;;;11.00;99.90;;;;;;5047907;28;20119;-63
2022/06/14 04:59:06;;;;;;;12.70;4.00;;;11.10;99.90;;;;;;5049789;28;20058;-63
2022/06/14 05:01:57;;;;;;;12.55;3.90;;;11.10;99.90;;;;;;5048848;28;20645;-63
2022/06/14 05:04:34;;;;;;;12.52;3.80;;;11.20;99.90;;;;;;5033293;28;20063;-63
2022/06/14 05:07:39;;;;;;;11.57;3.60;;;11.20;99.90;;;;;;5049020;28;20052;-63
2022/06/14 05:10:11;;;;;;;11.88;4.22;;;11.30;99.90;;;;;;5026613;28;20053;-63
2022/06/14 05:12:40;;;;;;;18.00;4.28;;;11.30;99.90;;;;;;5048738;28;20055;-63
2022/06/14 05:15:15;;;;;;;9.90;3.83;;;11.40;99.90;;;;;;5037166;28;20127;-63
2022/06/14 05:18:00;;;;;;;16.23;4.32;;;11.50;99.90;;;;;;5047787;28;20045;-63
2022/06/14 05:20:57;;;;;;;13.10;4.18;;;11.50;99.90;;;;;;5050482;28;20679;-62
2022/06/14 05:23:36;;;;;;;8.55;3.92;;;11.50;99.90;;;;;;5046407;28;20071;-62
2022/06/14 05:26:26;;;;;;;13.55;4.05;;;11.60;99.90;;;;;;5044434;28;20044;-63
2022/06/14 05:29:00;;;;;;;8.55;3.88;;;11.60;99.90;;;;;;5027860;28;20059;-63
2022/06/14 05:31:43;;;;;;;10.15;3.78;;;11.70;99.90;;;;;;4998295;28;20066;-62
2022/06/14 05:34:52;;;;;;;11.73;3.95;;;11.70;99.90;;;;;;5017460;28;20495;-62
2022/06/14 05:37:37;;;;;;;11.35;4.57;;;11.80;99.90;;;;;;5041739;28;20052;-62
2022/06/14 05:40:12;;;;;;;12.48;4.90;;;11.80;99.90;;;;;;5039813;28;20044;-63
2022/06/14 05:42:47;;;;;;;9.35;3.97;;;11.90;99.90;;;;;;5020195;28;20071;-62
2022/06/14 05:45:21;;;;;;;13.55;4.45;;;11.90;99.90;;;;;;5044342;28;20053;-62
2022/06/14 05:48:04;;;;;;;10.93;4.80;;;11.90;99.90;;;;;;5024348;28;20067;-63
2022/06/14 05:50:37;;;;;;;13.55;4.25;;;12.00;99.90;;;;;;5021646;28;20040;-62
2022/06/14 05:53:15;;;;;;;11.63;4.30;;;12.00;99.90;;;;;;5042083;28;20860;-62
2022/06/14 05:55:50;;;;;;;12.25;4.20;;;12.10;99.90;;;;;;5042618;28;20037;-62
2022/06/14 05:58:37;;;;;;;10.98;4.88;;;12.10;99.90;;;;;;5052869;28;20051;-62
2022/06/14 06:01:20;;;;;;;12.57;4.78;;;12.20;99.90;;;;;;5057683;28;20117;-63
2022/06/14 06:03:51;;;;;;;13.13;4.45;;;12.20;99.90;;;;;;5035735;28;20041;-63
2022/06/14 06:06:21;;;;;;;8.05;4.15;;;12.30;99.90;;;;;;5053810;28;20105;-63
2022/06/14 06:08:51;;;;;;;13.45;4.65;;;12.30;99.90;;;;;;5045426;28;20040;-62
2022/06/14 06:11:23;;;;;;;11.38;4.68;;;12.30;99.90;;;;;;5050358;28;20393;-60
2022/06/14 06:13:59;;;;;;;8.73;4.32;;;12.40;99.90;;;;;;5039909;28;20049;-61
2022/06/14 06:19:21;;;;;;;9.75;4.10;;;12.60;99.90;;;;;;5050958;28;20371;-61
2022/06/14 06:22:16;;;;;;;13.15;4.05;;;12.70;99.90;;;;;;5046315;28;20526;-61
2022/06/14 06:24:48;;;;;;;10.68;3.95;;;12.80;99.90;;;;;;5049923;28;20131;-61
2022/06/14 06:27:14;;;;;;;10.48;4.32;;;13.00;99.90;;;;;;5042546;28;20351;-61
2022/06/14 06:29:48;;;;;;;13.13;4.80;;;13.10;99.90;;;;;;5041882;28;20041;-60
2022/06/14 06:32:17;;;;;;;12.38;3.90;;;13.20;99.90;;;;;;5044841;28;20130;-61
2022/06/14 06:34:44;;;;;;;13.43;4.00;;;13.30;99.90;;;;;;5041565;28;20071;-61
2022/06/14 06:37:35;;;;;;;11.90;3.78;;;13.50;99.90;;;;;;5033024;28;20052;-61
2022/06/14 06:40:12;;;;;;;12.25;4.25;;;13.60;99.90;;;;;;5040198;28;20056;-61
2022/06/14 06:43:05;;;;;;;14.75;4.00;;;13.70;99.90;;;;;;5045915;28;20041;-61
2022/06/14 06:45:35;;;;;;;14.25;4.00;;;13.90;99.90;;;;;;5045209;28;20506;-60
2022/06/14 06:48:13;;;;;;;9.75;4.05;;;14.00;99.90;;;;;;5055618;28;20068;-61
2022/06/14 06:50:48;;;;;;;13.70;3.88;;;14.10;99.90;;;;;;5053430;28;20052;-60
2022/06/14 06:53:19;;;;;;;10.05;3.47;;;14.20;99.90;;;;;;5036677;28;20052;-62
2022/06/14 06:56:06;;;;;;;13.68;4.30;;;14.40;99.90;;;;;;5048274;28;20123;-60
2022/06/14 06:59:00;;;;;;;9.63;3.38;;;14.50;99.90;;;;;;5043956;28;20079;-62
2022/06/14 07:01:38;;;;;;;7.82;3.20;;;14.60;99.90;;;;;;5032083;28;20130;-60
2022/06/14 07:04:13;;;;;;;15.15;3.50;;;14.80;99.90;;;;;;5036175;28;20080;-60
2022/06/14 07:06:44;;;;;;;7.88;2.50;;;14.90;99.90;;;;;;5041511;28;20407;-60
2022/06/14 07:09:31;;;;;;;9.30;2.30;;;15.00;99.90;;;;;;5055907;28;20049;-60
2022/06/14 07:12:05;;;;;;;7.72;2.85;;;15.20;99.90;;;;;;5042804;28;20484;-59
2022/06/14 07:15:00;;;;;;;6.80;2.35;;;15.30;99.90;;;;;;5041826;28;20220;-59
2022/06/14 07:17:38;;;;;;;7.18;2.33;;;15.30;99.90;;;;;;5042205;28;20070;-62
2022/06/14 07:20:13;;;;;;;7.75;2.20;;;15.40;99.90;;;;;;5046678;28;20060;-61
2022/06/14 07:22:50;;;;;;;7.07;2.65;;;15.50;99.90;;;;;;5042645;28;20506;-59
2022/06/14 07:25:28;;;;;;;7.13;2.35;;;15.50;99.90;;;;;;5045928;28;20047;-60
2022/06/14 07:28:07;;;;;;;9.27;2.33;;;15.60;99.90;;;;;;5045898;28;20048;-61
2022/06/14 07:30:56;;;;;;;7.22;1.80;;;15.70;99.90;;;;;;5037185;28;20044;-59
2022/06/14 07:33:25;;;;;;;5.93;2.00;;;15.90;99.90;;;;;;5050983;28;20037;-60
2022/06/14 07:35:58;;;;;;;4.78;2.05;;;15.90;99.90;;;;;;5050036;28;20482;-60
2022/06/14 07:38:27;;;;;;;;;;;15.90;99.90;;;;;;5047868;28;20582;-61
2022/06/14 07:41:18;;;;;;;7.43;2.30;;;15.80;99.90;;;;;;5048755;28;19931;-60
2022/06/14 07:44:08;;;;;;;6.70;2.40;;;15.90;99.90;;;;;;5049244;28;20040;-60
2022/06/14 07:46:46;;;;;;;5.97;2.40;;;16.00;99.90;;;;;;5048729;28;20056;-60
2022/06/14 07:49:19;;;;;;;7.80;2.45;;;16.10;99.90;;;;;;5046516;28;20064;-61
2022/06/14 07:51:50;;;;;;;;;;;16.20;99.90;;;;;;5043554;28;20049;-61
2022/06/14 07:54:25;;;;;;;8.82;1.88;;;16.30;99.90;;;;;;5037365;28;19955;-62
2022/06/14 07:57:01;;;;;;;9.95;2.10;;;16.50;99.90;;;;;;5047887;28;20086;-61
2022/06/14 08:01:07;;;;;;;7.25;1.67;;;16.60;99.90;;;;;;5044242;28;20048;-61
2022/06/14 08:02:50;;;;;;;7.30;1.88;;;16.70;99.90;;;;;;5045950;28;20976;-61
2022/06/14 08:05:30;;;;;;;6.75;1.85;;;16.80;99.90;;;;;;5035644;28;20127;-61
2022/06/14 08:07:59;;;;;;;5.07;1.92;;;16.90;99.90;;;;;;5043454;28;20429;-61
2022/06/14 08:10:30;;;;;;;6.22;1.58;;;17.10;99.90;;;;;;5048723;28;20053;-61
2022/06/14 08:13:05;;;;;;;4.10;1.67;;;17.20;99.70;;;;;;5046016;28;20075;-61
2022/06/14 08:15:36;;;;;;;5.68;1.70;;;17.20;99.70;;;;;;5044764;28;20143;-61
2022/06/14 08:18:36;;;;;;;4.20;1.55;;;17.30;99.40;;;;;;5044054;28;20051;-61
2022/06/14 08:21:12;;;;;;;5.60;1.90;;;17.40;99.20;;;;;;5043376;28;20102;-61
2022/06/14 08:23:44;;;;;;;4.63;1.60;;;17.50;98.70;;;;;;5043648;28;20037;-60
2022/06/14 08:26:16;;;;;;;3.63;1.85;;;17.40;98.60;;;;;;5039758;28;20048;-61
2022/06/14 08:28:49;;;;;;;5.50;2.05;;;17.50;98.70;;;;;;5043259;28;21745;-60
2022/06/14 08:31:21;;;;;;;3.50;1.58;;;17.50;98.60;;;;;;5044472;28;20036;-60
2022/06/14 08:33:59;;;;;;;3.75;2.00;;;17.50;98.40;;;;;;5040668;28;20083;-60
2022/06/14 08:36:43;;;;;;;7.28;1.85;;;17.60;98.40;;;;;;5045819;28;20067;-60
2022/06/14 08:39:15;;;;;;;5.90;1.65;;;17.90;98.80;;;;;;5043889;28;20135;-60
2022/06/14 08:41:47;;;;;;;;;;;18.00;98.10;;;;;;5052790;28;20105;-61
2022/06/14 08:44:25;;;;;;;3.80;1.52;;;18.00;98.20;;;;;;5055919;28;19919;-61
2022/06/14 08:47:10;;;;;;;3.63;1.52;;;18.10;98.30;;;;;;5039212;28;20569;-60
2022/06/14 08:50:06;;;;;;;1.60;0.93;;;18.20;97.60;;;;;;5042126;28;20092;-60
2022/06/14 08:52:46;;;;;;;4.28;1.52;;;18.20;96.00;;;;;;5038862;28;20130;-61
2022/06/14 08:55:39;;;;;;;3.80;1.30;;;18.30;96.20;;;;;;5045561;28;21209;-60
2022/06/14 08:58:14;;;;;;;4.47;1.33;;;18.60;96.80;;;;;;5036776;28;20044;-60
2022/06/14 09:01:04;;;;;;;4.65;1.73;;;18.70;96.00;;;;;;5055319;28;20494;-61
2022/06/14 09:03:57;;;;;;;6.35;1.80;;;18.70;96.30;;;;;;5046797;28;20063;-60
2022/06/14 09:06:38;;;;;;;4.72;1.70;;;18.70;96.00;;;;;;5040727;28;20052;-61
2022/06/14 09:09:22;;;;;;;3.25;1.40;;;18.60;95.40;;;;;;5042895;28;20048;-59
2022/06/14 09:12:02;;;;;;;5.38;1.65;;;18.50;95.60;;;;;;5045438;28;20044;-60
2022/06/14 09:14:49;;;;;;;3.50;1.50;;;18.60;95.70;;;;;;5039703;28;20059;-60
2022/06/14 09:17:40;;;;;;;4.05;1.45;;;18.70;95.40;;;;;;5042940;28;22826;-60
2022/06/14 09:20:32;;;;;;;3.50;1.25;;;18.90;96.30;;;;;;5018538;28;20114;-61
2022/06/14 09:23:23;;;;;;;2.45;1.13;;;19.10;95.00;;;;;;5041086;28;20424;-61
2022/06/14 09:26:17;;;;;;;4.05;1.65;;;19.20;94.30;;;;;;5047790;28;20055;-61
2022/06/14 09:29:08;;;;;;;4.80;1.40;;;19.30;93.80;;;;;;5043503;28;20044;-61
2022/06/14 09:31:33;;;;;;;2.72;1.13;;;19.40;92.90;;;;;;5042652;28;20048;-60
2022/06/14 09:34:32;;;;;;;3.33;1.40;;;19.40;92.90;;;;;;5041910;28;20568;-61
2022/06/14 09:37:40;;;;;;;3.63;1.40;;;19.50;93.00;;;;;;5019702;28;20044;-60
2022/06/14 09:40:24;;;;;;;2.70;1.30;;;19.60;92.60;;;;;;5043745;28;20052;-61
2022/06/14 09:43:08;;;;;;;6.95;2.20;;;19.80;92.90;;;;;;5042720;28;20080;-61
2022/06/14 09:46:03;;;;;;;5.72;1.98;;;20.00;92.70;;;;;;5040266;28;20048;-61
2022/06/14 09:48:45;;;;;;;5.07;1.77;;;19.90;91.80;;;;;;5011285;28;20056;-61
2022/06/14 09:51:32;;;;;;;4.18;1.50;;;19.70;91.50;;;;;;5043963;28;20420;-60
2022/06/14 09:54:07;;;;;;;4.50;1.50;;;19.50;91.40;;;;;;5046275;28;20045;-61
2022/06/14 09:56:52;;;;;;;6.95;1.70;;;19.30;92.00;;;;;;5046962;28;20051;-61
2022/06/14 09:59:52;;;;;;;3.63;1.70;;;19.20;92.50;;;;;;5041031;28;20082;-61
2022/06/14 10:02:44;;;;;;;6.35;1.95;;;19.10;92.50;;;;;;5045050;28;20059;-61
2022/06/14 10:05:43;;;;;;;4.28;1.75;;;19.10;93.10;;;;;;5042245;28;20041;-60
2022/06/14 10:08:34;;;;;;;5.55;1.90;;;19.10;93.80;;;;;;5025768;28;20105;-61
2022/06/14 10:11:21;;;;;;;4.07;1.92;;;19.20;93.80;;;;;;5046635;28;20106;-60
2022/06/14 10:14:00;;;;;;;7.53;1.90;;;19.20;93.20;;;;;;5045905;28;20040;-61
2022/06/14 10:16:50;;;;;;;5.78;1.77;;;19.30;93.00;;;;;;5042927;28;20083;-61
2022/06/14 10:19:51;;;;;;;6.25;2.28;;;19.30;93.30;;;;;;5044731;28;20510;-60
2022/06/14 10:22:48;;;;;;;4.93;1.85;;;19.30;93.20;;;;;;5044868;28;20509;-61
2022/06/14 10:28:11;;;;;;;4.40;1.67;;;19.30;93.30;;;;;;5043181;28;20444;-61
2022/06/14 10:28:48;;;;;;;6.22;1.70;;;19.20;93.10;;;;;;5047583;28;20049;-61
2022/06/14 10:31:30;;;;;;;4.97;1.80;;;19.20;93.00;;;;;;5045661;28;20044;-60
2022/06/14 10:34:39;;;;;;;5.75;2.10;;;19.10;92.90;;;;;;5049168;28;20083;-60
2022/06/14 10:37:52;;;;;;;6.45;1.98;;;18.90;93.70;;;;;;5058605;28;20404;-61
2022/06/14 10:40:18;;;;;;;;;;;18.70;94.30;;;;;;5047095;28;20040;-61
2022/06/14 10:43:08;;;;;;;9.43;2.50;;;18.60;94.90;;;;;;5046315;28;19926;-61
2022/06/14 10:46:07;;;;;;;9.50;2.85;;;18.50;95.30;;;;;;5049560;28;20052;-61
2022/06/14 10:48:58;;;;;;;8.63;2.10;;;18.40;95.80;;;;;;5028960;28;20522;-60
2022/06/14 10:52:08;;;;;;;5.68;2.70;;;18.40;96.50;;;;;;5041879;28;20037;-61
2022/06/14 10:54:44;;;;;;;5.72;2.47;;;18.30;96.80;;;;;;5039943;28;20548;-60
2022/06/14 10:57:41;;;;;;;8.15;2.80;;;18.30;97.30;;;;;;5044647;28;20483;-61
2022/06/14 11:00:17;;;;;;;5.97;2.20;;;18.30;97.40;;;;;;5036721;28;20044;-61
2022/06/14 11:03:12;;;;;;;5.45;2.05;;;18.40;97.30;;;;;;5042951;28;20154;-61
2022/06/14 11:06:14;;;;;;;7.80;2.85;;;18.40;97.40;;;;;;5048319;28;20182;-61
2022/06/14 11:08:55;;;;;;;5.25;2.40;;;18.50;96.90;;;;;;5045249;28;21573;-61
2022/06/14 11:11:34;;;;;;;10.40;3.70;;;18.60;97.20;;;;;;5049379;28;20037;-61
2022/06/14 11:14:27;;;;;;;5.28;2.70;;;18.60;97.10;;;;;;5049511;28;20050;-61
2022/06/14 11:17:22;;;;;;;8.98;3.03;;;18.70;97.00;;;;;;5050384;28;20087;-61
2022/06/14 11:20:01;;;;;;;7.95;2.88;;;18.80;96.60;;;;;;5050481;28;21530;-61
2022/06/14 11:22:53;;;;;;;9.85;2.50;;;18.90;96.30;;;;;;5048965;28;20040;-61
2022/06/14 11:25:34;;;;;;;4.28;2.50;;;18.90;96.30;;;;;;5047508;28;20041;-61
2022/06/14 11:28:24;;;;;;;9.10;2.70;;;19.10;96.10;;;;;;5049570;28;20048;-61
2022/06/14 11:31:05;;;;;;;7.97;2.97;;;19.10;96.10;;;;;;5052350;28;20044;-60
2022/06/14 11:33:48;;;;;;;6.65;2.30;;;19.30;96.00;;;;;;5052082;28;21353;-61
2022/06/14 11:36:16;;;;;;;;;;;19.30;94.80;;;;;;5049931;28;20076;-61
2022/06/14 11:39:19;;;;;;;4.10;2.45;;;19.30;94.40;;;;;;5047831;28;19925;-61
2022/06/14 11:41:48;;;;;;;8.63;2.72;;;19.40;95.20;;;;;;5047989;28;20105;-61
2022/06/14 11:44:51;;;;;;;6.85;2.20;;;19.50;94.40;;;;;;5046240;28;20132;-61
2022/06/14 11:47:38;;;;;;;8.18;2.35;;;19.60;93.60;;;;;;5044395;28;20055;-61
2022/06/14 11:50:49;;;;;;;6.80;2.10;;;19.70;93.70;;;;;;5056321;28;20383;-61
2022/06/14 11:53:37;;;;;;;3.42;1.67;;;19.80;93.60;;;;;;5041022;28;20045;-61
2022/06/14 11:56:11;;;;;;;6.60;1.92;;;19.90;92.60;;;;;;5044962;28;20113;-61
2022/06/14 11:59:08;;;;;;;5.32;1.80;;;19.90;92.10;;;;;;5041179;28;20064;-61
2022/06/14 12:01:42;;;;;;;5.57;1.90;;;20.00;91.80;;;;;;5041577;28;20056;-61
2022/06/14 12:04:39;;;;;;;2.72;1.58;;;20.20;92.30;;;;;;5041771;28;20056;-60
2022/06/14 12:07:15;;;;;;;7.22;2.20;;;20.40;92.20;;;;;;5047791;28;20045;-61
2022/06/14 12:10:06;;;;;;;6.25;2.30;;;20.60;91.10;;;;;;5049319;28;20091;-60
2022/06/14 12:12:58;;;;;;;6.20;2.13;;;20.70;88.40;;;;;;5042605;28;20052;-60
2022/06/14 12:15:36;;;;;;;6.45;2.00;;;20.70;90.00;;;;;;5039303;28;20051;-62
2022/06/14 12:18:07;;;;;;;3.47;1.60;;;20.70;88.10;;;;;;5047739;28;20107;-62
2022/06/14 12:20:52;;;;;;;6.70;2.22;;;20.80;89.40;;;;;;5050307;28;21042;-62
2022/06/14 12:23:31;;;;;;;4.65;2.00;;;20.80;88.10;;;;;;5053321;28;20044;-62
2022/06/14 12:28:58;;;;;;;4.45;2.08;;;20.80;87.20;;;;;;5044097;28;20044;-60
2022/06/14 12:31:29;;;;;;;5.47;1.70;;;20.70;87.00;;;;;;5056196;28;20075;-62
2022/06/14 12:34:21;;;;;;;4.70;1.70;;;20.80;86.00;;;;;;5064908;28;20049;-63
2022/06/14 12:36:56;;;;;;;4.43;2.25;;;20.80;85.60;;;;;;5062925;28;20110;-62
2022/06/14 12:39:31;;;;;;;3.30;1.42;;;20.90;86.10;;;;;;5053225;28;20089;-62
2022/06/14 12:42:01;;;;;;;3.75;1.60;;;21.00;85.70;;;;;;5044938;28;20032;-62
2022/06/14 12:44:45;;;;;;;4.88;1.52;;;21.10;83.80;;;;;;5063403;28;20382;-62
2022/06/14 12:47:30;;;;;;;4.43;1.77;;;21.20;81.30;;;;;;5055535;28;20101;-62
2022/06/14 12:50:06;;;;;;;4.85;1.80;;;21.30;83.10;;;;;;5052943;28;20114;-62
2022/06/14 12:52:40;;;;;;;3.08;1.50;;;21.30;84.30;;;;;;5051441;28;20490;-62
2022/06/14 12:55:33;;;;;;;4.13;1.58;;;21.30;83.00;;;;;;5052826;28;20040;-62
2022/06/14 12:58:14;;;;;;;4.63;1.67;;;21.30;84.40;;;;;;5027724;28;20052;-62
2022/06/14 13:00:47;;;;;;;3.95;1.50;;;21.20;83.50;;;;;;5047588;28;20067;-62
2022/06/14 13:03:26;;;;;;;7.15;1.75;;;21.20;82.80;;;;;;5051891;28;20521;-62
2022/06/14 13:06:05;;;;;;;4.03;1.67;;;21.10;81.60;;;;;;5038363;28;20049;-62
2022/06/14 13:09:00;;;;;;;3.75;1.65;;;21.00;81.80;;;;;;5034827;28;20498;-62
2022/06/14 13:12:00;;;;;;;3.60;1.50;;;21.00;82.80;;;;;;5035294;28;20080;-61
2022/06/14 13:14:34;;;;;;;4.38;1.50;;;20.90;81.70;;;;;;5041380;28;20183;-62
2022/06/14 13:17:17;;;;;;;6.30;1.95;;;20.80;82.10;;;;;;5045618;28;20498;-62
2022/06/14 13:19:46;;;;;;;9.75;2.08;;;20.70;82.80;;;;;;5042599;28;20157;-62
2022/06/14 13:22:31;;;;;;;5.68;2.13;;;20.60;84.00;;;;;;5039599;28;20605;-62
2022/06/14 13:25:15;;;;;;;4.35;2.00;;;20.50;85.10;;;;;;5043616;28;20047;-62
2022/06/14 13:27:41;;;;;;;4.97;2.17;;;20.40;85.40;;;;;;5046083;28;20569;-61
2022/06/14 13:30:22;;;;;;;5.35;1.90;;;20.40;87.60;;;;;;5041899;28;20052;-62
2022/06/14 13:33:07;;;;;;;4.93;1.75;;;20.40;87.30;;;;;;5042670;28;20048;-62
2022/06/14 13:35:46;;;;;;;4.20;1.50;;;20.30;86.80;;;;;;5043532;28;20048;-61
2022/06/14 13:38:14;;;;;;;5.13;2.10;;;20.30;87.40;;;;;;5033583;28;20757;-62
2022/06/14 13:40:52;;;;;;;4.97;2.03;;;20.20;87.10;;;;;;5039541;28;20118;-62
2022/06/14 13:43:57;;;;;;;8.82;2.72;;;20.20;87.40;;;;;;5045134;28;20052;-62
2022/06/14 13:46:43;;;;;;;6.25;2.50;;;20.20;86.50;;;;;;5027668;28;20777;-62
2022/06/14 13:49:38;;;;;;;5.10;2.03;;;20.10;86.40;;;;;;5050465;28;20060;-62
2022/06/14 13:52:43;;;;;;;6.10;1.70;;;20.00;86.50;;;;;;5048058;28;20470;-62
2022/06/14 13:55:22;;;;;;;4.28;2.10;;;20.00;86.90;;;;;;5046446;28;20106;-62
2022/06/14 13:57:57;;;;;;;6.72;2.30;;;20.00;87.00;;;;;;5049840;28;20083;-62
2022/06/14 14:00:52;;;;;;;7.35;2.20;;;20.00;86.30;;;;;;5041766;28;20052;-62
2022/06/14 14:03:29;;;;;;;4.78;1.60;;;20.10;86.40;;;;;;5046851;28;20053;-62